PWSweather.com
Personal Weather Stations
Station Observations
MARICOPA
Cobblestone Farms, Maricopa, AZ 85139

Cobblestone FarmsMaricopa, AZ 85139

Lat: 33.076, Lon: -112.0445

Elevation: 1148

Station Type: LaCrosse 2310/15

http://weather.azkiwis.net

Latest ConditionsUpdated 8:00:15 PM MST Monday, May 4, 2015
Currently Today's Max Today's Min Today's Average
Temperature 69.8°F21.0°C 83.7°F28.7°C 61.9°F16.6°C 72.4°F22.4°C
Dew Point 48.7°F9.3°C 59.2°F15.1°C 44.2°F6.8°C 54.1°F12.3°C
Winds 6.6 mph WSW10.6 kmh WSW 12.0 mph W19.3 kmh W - 2.0 mph 3.2 kmh
Wind Gusts 11.4 mph18.3 kmh 22.1 mph35.6 kmh - -
Humidity 47% 83% 31% 56%
Pressure 29.87 in1011.5 mb 29.90 in1012.5 mb 29.78 in1008.5 mb -
Precipitation - 0.76 in19.3 mm - -
Hour Temp Dew Point Humidity Winds Wind Gusts Pressure Precip Precip Rate Daily Precip Total
08:00 PM 69.8°F21.0°C 48.7°F9.3°C 47% 6.6 mph WSW10.6 kmh WSW 11.4 mph18.3 kmh 29.87 in1011.5 mb - 0.00 in0.0 mm 0.76 in19.3 mm
07:45 PM 71.2°F21.8°C 48.8°F9.3°C 45% 5.7 mph W9.2 kmh W 8.7 mph14.0 kmh 29.85 in1010.8 mb - 0.00 in0.0 mm 0.76 in19.3 mm
07:30 PM 73.0°F22.8°C 47.9°F8.8°C 41% 12.0 mph W19.3 kmh W 22.1 mph35.6 kmh 29.85 in1010.8 mb - 0.00 in0.0 mm 0.76 in19.3 mm
07:15 PM 73.6°F23.1°C 46.4°F8.0°C 38% 7.2 mph WNW11.6 kmh WNW 9.6 mph15.4 kmh 29.82 in1009.8 mb - 0.00 in0.0 mm 0.76 in19.3 mm
07:00 PM 74.7°F23.7°C 46.7°F8.2°C 37% 4.1 mph W6.6 kmh W 10.9 mph17.5 kmh 29.80 in1009.1 mb - 0.00 in0.0 mm 0.76 in19.3 mm
06:45 PM 75.7°F24.3°C 46.1°F7.8°C 35% 5.8 mph W9.3 kmh W 6.7 mph10.8 kmh 29.80 in1009.1 mb - 0.00 in0.0 mm 0.76 in19.3 mm
06:30 PM 77.0°F25.0°C 46.5°F8.1°C 34% 4.8 mph W7.7 kmh W 10.1 mph16.3 kmh 29.79 in1008.8 mb - 0.00 in0.0 mm 0.76 in19.3 mm
06:15 PM 78.8°F26.0°C 47.3°F8.5°C 33% 5.3 mph W8.5 kmh W 12.3 mph19.8 kmh 29.79 in1008.8 mb - 0.00 in0.0 mm 0.76 in19.3 mm
06:00 PM 79.5°F26.4°C 47.9°F8.8°C 33% 4.0 mph W6.4 kmh W 4.9 mph7.9 kmh 29.78 in1008.5 mb - 0.00 in0.0 mm 0.76 in19.3 mm
05:45 PM 79.9°F26.6°C 47.4°F8.6°C 32% 4.8 mph W7.7 kmh W 11.2 mph18.0 kmh 29.78 in1008.5 mb - 0.00 in0.0 mm 0.76 in19.3 mm
05:30 PM 79.6°F26.4°C 48.0°F8.9°C 33% 4.5 mph WSW7.2 kmh WSW 7.6 mph12.2 kmh 29.78 in1008.5 mb - 0.00 in0.0 mm 0.76 in19.3 mm
05:15 PM 77.7°F25.4°C 47.1°F8.4°C 34% 1.8 mph SW2.9 kmh SW 2.9 mph4.7 kmh 29.78 in1008.5 mb - 0.00 in0.0 mm 0.76 in19.3 mm
05:00 PM 76.6°F24.8°C 46.9°F8.3°C 35% 2.6 mph S4.2 kmh S 5.8 mph9.3 kmh 29.78 in1008.5 mb - 0.00 in0.0 mm 0.76 in19.3 mm
04:45 PM 75.9°F24.4°C 47.0°F8.3°C 36% 2.2 mph SW3.5 kmh SW 8.0 mph12.9 kmh 29.79 in1008.8 mb - 0.00 in0.0 mm 0.76 in19.3 mm
04:30 PM 75.4°F24.1°C 48.0°F8.9°C 38% 1.9 mph SW3.1 kmh SW 4.2 mph6.8 kmh 29.79 in1008.8 mb - 0.00 in0.0 mm 0.76 in19.3 mm
04:15 PM 75.0°F23.9°C 48.4°F9.1°C 39% 3.9 mph WSW6.3 kmh WSW 5.6 mph9.0 kmh 29.78 in1008.5 mb - 0.00 in0.0 mm 0.76 in19.3 mm
04:00 PM 75.2°F24.0°C 47.8°F8.8°C 38% 3.1 mph WSW5.0 kmh WSW 7.4 mph11.9 kmh 29.78 in1008.5 mb - 0.00 in0.0 mm 0.76 in19.3 mm
03:45 PM 76.6°F24.8°C 46.9°F8.3°C 35% 8.1 mph W13.0 kmh W 8.3 mph13.4 kmh 29.79 in1008.8 mb - 0.00 in0.0 mm 0.76 in19.3 mm
03:30 PM 76.5°F24.7°C 46.0°F7.8°C 34% 9.9 mph NW15.9 kmh NW 17.4 mph28.0 kmh 29.79 in1008.8 mb - 0.00 in0.0 mm 0.76 in19.3 mm
03:15 PM 77.2°F25.1°C 44.2°F6.8°C 31% 5.8 mph W9.3 kmh W 12.7 mph20.4 kmh 29.79 in1008.8 mb - 0.00 in0.0 mm 0.76 in19.3 mm
03:00 PM 77.7°F25.4°C 45.5°F7.5°C 32% 2.1 mph WNW3.4 kmh WNW 5.1 mph8.2 kmh 29.81 in1009.5 mb - 0.00 in0.0 mm 0.76 in19.3 mm
02:45 PM 78.1°F25.6°C 49.7°F9.8°C 37% 5.6 mph W9.0 kmh W 7.6 mph12.2 kmh 29.81 in1009.5 mb - 0.00 in0.0 mm 0.76 in19.3 mm
02:30 PM 78.3°F25.7°C 48.4°F9.1°C 35% 5.1 mph WSW8.2 kmh WSW 12.3 mph19.8 kmh 29.81 in1009.5 mb - 0.00 in0.0 mm 0.76 in19.3 mm
02:15 PM 79.3°F26.3°C 52.9°F11.6°C 40% 1.9 mph W3.1 kmh W 8.3 mph13.4 kmh 29.82 in1009.8 mb - 0.00 in0.0 mm 0.76 in19.3 mm
02:00 PM 79.9°F26.6°C 52.0°F11.1°C 38% Calm Calm -- 29.82 in1009.8 mb - 0.00 in0.0 mm 0.76 in19.3 mm
01:45 PM 80.9°F27.2°C 52.9°F11.6°C 38% Calm Calm -- 29.83 in1010.2 mb - 0.00 in0.0 mm 0.76 in19.3 mm
01:30 PM 82.2°F27.9°C 53.4°F11.9°C 37% Calm Calm 0.2 mph0.3 kmh 29.83 in1010.2 mb - 0.00 in0.0 mm 0.76 in19.3 mm
01:15 PM 83.7°F28.7°C 53.9°F12.2°C 36% Calm Calm -- 29.84 in1010.5 mb - 0.00 in0.0 mm 0.76 in19.3 mm
01:00 PM 83.6°F28.7°C 56.0°F13.3°C 39% 1.3 mph SW2.1 kmh SW 4.7 mph7.6 kmh 29.84 in1010.5 mb - 0.00 in0.0 mm 0.76 in19.3 mm
12:45 PM 83.1°F28.4°C 54.9°F12.7°C 38% Calm Calm -- 29.85 in1010.8 mb - 0.00 in0.0 mm 0.76 in19.3 mm
12:30 PM 82.4°F28.0°C 55.7°F13.2°C 40% Calm Calm -- 29.85 in1010.8 mb - 0.00 in0.0 mm 0.76 in19.3 mm
12:15 PM 81.9°F27.7°C 55.2°F12.9°C 40% Calm Calm -- 29.86 in1011.2 mb - 0.00 in0.0 mm 0.76 in19.3 mm
12:00 PM 81.1°F27.3°C 55.9°F13.3°C 42% Calm Calm 0.2 mph0.3 kmh 29.87 in1011.5 mb - 0.00 in0.0 mm 0.76 in19.3 mm
11:45 AM 79.9°F26.6°C 54.7°F12.6°C 42% Calm Calm -- 29.87 in1011.5 mb - 0.00 in0.0 mm 0.76 in19.3 mm
11:30 AM 79.0°F26.1°C 55.2°F12.9°C 44% Calm Calm -- 29.88 in1011.9 mb - 0.00 in0.0 mm 0.76 in19.3 mm
11:15 AM 78.1°F25.6°C 56.2°F13.4°C 47% 2.7 mph NW4.3 kmh NW 3.8 mph6.1 kmh 29.89 in1012.2 mb - 0.00 in0.0 mm 0.76 in19.3 mm
11:00 AM 77.2°F25.1°C 56.0°F13.3°C 48% 0.8 mph NNW1.3 kmh NNW 1.6 mph2.6 kmh 29.89 in1012.2 mb - 0.00 in0.0 mm 0.76 in19.3 mm
10:45 AM 76.3°F24.6°C 56.3°F13.5°C 50% 3.7 mph NNW6.0 kmh NNW 6.7 mph10.8 kmh 29.89 in1012.2 mb - 0.00 in0.0 mm 0.76 in19.3 mm
10:30 AM 76.3°F24.6°C 56.9°F13.8°C 51% 1.0 mph NNW1.6 kmh NNW 2.7 mph4.3 kmh 29.90 in1012.5 mb - 0.00 in0.0 mm 0.76 in19.3 mm
10:15 AM 75.9°F24.4°C 58.1°F14.5°C 54% 0.8 mph NNW1.3 kmh NNW 3.1 mph5.0 kmh 29.90 in1012.5 mb - 0.00 in0.0 mm 0.76 in19.3 mm
10:00 AM 75.4°F24.1°C 57.1°F13.9°C 53% 2.7 mph N4.3 kmh N 8.7 mph14.0 kmh 29.89 in1012.2 mb - 0.00 in0.0 mm 0.76 in19.3 mm
09:45 AM 74.8°F23.8°C 58.5°F14.7°C 57% 0.5 mph NNE0.8 kmh NNE 4.7 mph7.6 kmh 29.89 in1012.2 mb - 0.00 in0.0 mm 0.76 in19.3 mm
09:30 AM 73.3°F22.9°C 58.1°F14.5°C 59% 2.5 mph SE4.0 kmh SE 8.0 mph12.9 kmh 29.88 in1011.9 mb - 0.00 in0.0 mm 0.76 in19.3 mm
09:15 AM 72.7°F22.6°C 58.9°F14.9°C 62% 0.2 mph N0.3 kmh N 1.6 mph2.6 kmh 29.89 in1012.2 mb - 0.00 in0.0 mm 0.76 in19.3 mm
09:00 AM 71.4°F21.9°C 58.5°F14.7°C 64% Calm Calm -- 29.89 in1012.2 mb - 0.00 in0.0 mm 0.76 in19.3 mm
08:45 AM 70.0°F21.1°C 58.1°F14.5°C 66% 1.2 mph NNE1.9 kmh NNE 2.0 mph3.2 kmh 29.89 in1012.2 mb - 0.00 in0.0 mm 0.76 in19.3 mm
08:30 AM 69.1°F20.6°C 58.9°F14.9°C 70% 0.3 mph NNE0.5 kmh NNE 2.5 mph4.0 kmh 29.88 in1011.9 mb - 0.00 in0.0 mm 0.76 in19.3 mm
08:15 AM 67.7°F19.8°C 58.7°F14.8°C 73% Calm Calm -- 29.89 in1012.2 mb - 0.00 in0.0 mm 0.76 in19.3 mm
08:00 AM 66.3°F19.1°C 59.2°F15.1°C 78% 3.8 mph NNW6.1 kmh NNW 6.9 mph11.1 kmh 29.89 in1012.2 mb - 0.00 in0.0 mm 0.76 in19.3 mm
07:45 AM 64.4°F18.0°C 58.8°F14.9°C 82% 0.7 mph NNW1.1 kmh NNW 1.8 mph2.9 kmh 29.89 in1012.2 mb - 0.00 in0.0 mm 0.76 in19.3 mm
07:30 AM 63.1°F17.3°C 57.9°F14.4°C 83% Calm Calm -- 29.89 in1012.2 mb - 0.00 in0.0 mm 0.76 in19.3 mm
07:15 AM 62.4°F16.9°C 57.2°F14.0°C 83% 0.2 mph NNE0.3 kmh NNE -- 29.88 in1011.9 mb - 0.00 in0.0 mm 0.76 in19.3 mm
07:00 AM 61.9°F16.6°C 56.7°F13.7°C 83% Calm Calm -- 29.88 in1011.9 mb - 0.00 in0.0 mm 0.76 in19.3 mm
06:45 AM 63.0°F17.2°C 57.4°F14.1°C 82% Calm Calm -- 29.88 in1011.9 mb - 0.00 in0.0 mm 0.76 in19.3 mm
06:30 AM 63.0°F17.2°C 57.4°F14.1°C 82% Calm Calm -- 29.87 in1011.5 mb - 0.00 in0.0 mm 0.76 in19.3 mm
06:15 AM 63.0°F17.2°C 57.4°F14.1°C 82% Calm Calm -- 29.88 in1011.9 mb - 0.00 in0.0 mm 0.76 in19.3 mm
06:00 AM 63.0°F17.2°C 57.4°F14.1°C 82% Calm Calm -- 29.87 in1011.5 mb - 0.00 in0.0 mm 0.76 in19.3 mm
05:45 AM 63.0°F17.2°C 57.4°F14.1°C 82% Calm Calm -- 29.87 in1011.5 mb - 0.00 in0.0 mm 0.76 in19.3 mm
05:30 AM 63.0°F17.2°C 57.4°F14.1°C 82% Calm Calm -- 29.86 in1011.2 mb - 0.00 in0.0 mm 0.76 in19.3 mm
05:15 AM 63.0°F17.2°C 57.4°F14.1°C 82% 0.1 mph NNE0.2 kmh NNE -- 29.86 in1011.2 mb - 0.00 in0.0 mm 0.76 in19.3 mm
05:00 AM 63.1°F17.3°C 57.6°F14.2°C 82% 3.4 mph N5.5 kmh N 7.4 mph11.9 kmh 29.86 in1011.2 mb - 0.00 in0.0 mm 0.76 in19.3 mm
04:45 AM 63.3°F17.4°C 57.7°F14.3°C 82% 0.4 mph NNE0.6 kmh NNE 5.8 mph9.3 kmh 29.86 in1011.2 mb - 0.00 in0.0 mm 0.76 in19.3 mm
04:30 AM 63.7°F17.6°C 57.7°F14.3°C 81% Calm Calm -- 29.86 in1011.2 mb - 0.00 in0.0 mm 0.76 in19.3 mm
04:15 AM 63.9°F17.7°C 57.9°F14.4°C 81% 0.1 mph 0.2 kmh 2.0 mph3.2 kmh 29.86 in1011.2 mb - 0.00 in0.0 mm 0.76 in19.3 mm
04:00 AM 64.0°F17.8°C 58.1°F14.5°C 81% Calm Calm -- 29.85 in1010.8 mb - 0.00 in0.0 mm 0.76 in19.3 mm
03:45 AM 64.4°F18.0°C 58.4°F14.7°C 81% 1.8 mph N2.9 kmh N 6.5 mph10.5 kmh 29.86 in1011.2 mb - 0.03 in0.8 mm 0.76 in19.3 mm
03:30 AM 64.6°F18.1°C 58.3°F14.6°C 80% Calm Calm 4.0 mph6.4 kmh 29.86 in1011.2 mb - 0.09 in2.3 mm 0.73 in18.5 mm
03:15 AM 64.9°F18.3°C 58.6°F14.8°C 80% Calm Calm -- 29.87 in1011.5 mb - 0.09 in2.3 mm 0.64 in16.3 mm
03:00 AM 64.9°F18.3°C 58.3°F14.6°C 79% Calm Calm -- 29.85 in1010.8 mb - 0.00 in0.0 mm 0.55 in14.0 mm
02:45 AM 65.1°F18.4°C 58.1°F14.5°C 78% 4.7 mph ENE7.6 kmh ENE 7.8 mph12.6 kmh 29.81 in1009.5 mb - 0.00 in0.0 mm 0.55 in14.0 mm
02:30 AM 65.5°F18.6°C 58.1°F14.5°C 77% 1.4 mph E2.3 kmh E 3.8 mph6.1 kmh 29.83 in1010.2 mb - 0.03 in0.8 mm 0.55 in14.0 mm
02:15 AM 66.4°F19.1°C 58.2°F14.6°C 75% 0.5 mph E0.8 kmh E -- 29.83 in1010.2 mb - 0.18 in4.6 mm 0.52 in13.2 mm
02:00 AM 67.5°F19.7°C 58.5°F14.7°C 73% 1.0 mph E1.6 kmh E 5.1 mph8.2 kmh 29.85 in1010.8 mb - 0.31 in7.9 mm 0.37 in9.4 mm
01:45 AM 68.0°F20.0°C 57.4°F14.1°C 69% 0.1 mph SSE0.2 kmh SSE 2.9 mph4.7 kmh 29.82 in1009.8 mb - 0.00 in0.0 mm 0.06 in1.5 mm
01:30 AM 69.4°F20.8°C 58.0°F14.4°C 67% Calm Calm -- 29.81 in1009.5 mb - 0.00 in0.0 mm 0.06 in1.5 mm
01:15 AM 70.6°F21.4°C 57.3°F14.1°C 63% Calm Calm -- 29.81 in1009.5 mb - 0.06 in1.5 mm 0.06 in1.5 mm
01:00 AM 70.9°F21.6°C 54.9°F12.7°C 57% 0.2 mph SSW0.3 kmh SSW -- 29.82 in1009.8 mb - 0.00 in0.0 mm 0.00 in0.0 mm
12:45 AM 71.6°F22.0°C 54.1°F12.3°C 54% Calm Calm -- 29.81 in1009.5 mb - 0.00 in0.0 mm 0.00 in0.0 mm
12:30 AM 73.5°F23.1°C 54.8°F12.7°C 52% 1.0 mph WSW1.6 kmh WSW 4.5 mph7.2 kmh 29.80 in1009.1 mb - 0.00 in0.0 mm 0.00 in0.0 mm
12:15 AM 75.3°F24.1°C 53.7°F12.1°C 47% 0.9 mph W1.4 kmh W -- 29.82 in1009.8 mb - 0.00 in0.0 mm 0.00 in0.0 mm
12:00 AM 76.6°F24.8°C 51.2°F10.7°C 41% 2.3 mph W3.7 kmh W 3.4 mph5.5 kmh 29.80 in1009.1 mb - 0.00 in0.0 mm 0.00 in0.0 mm